createdAt,value
2022-12-01T00:00:23.439Z,6.6
2022-12-01T00:01:23.473Z,6.6
2022-12-01T00:02:23.579Z,6.6
2022-12-01T00:03:23.552Z,6.6
2022-12-01T00:04:23.482Z,6.7
2022-12-01T00:05:23.448Z,6.6
2022-12-01T00:06:23.451Z,6.6
2022-12-01T00:07:23.465Z,6.7
2022-12-01T00:08:23.452Z,6.7
2022-12-01T00:09:23.528Z,6.7
2022-12-01T00:10:23.431Z,6.8
2022-12-01T00:11:23.451Z,6.8
2022-12-01T00:12:23.430Z,6.8
2022-12-01T00:13:23.440Z,6.8
2022-12-01T00:14:23.431Z,6.8
2022-12-01T00:15:23.443Z,6.7
2022-12-01T00:16:23.498Z,6.7
2022-12-01T00:17:23.453Z,6.8
2022-12-01T00:18:23.452Z,6.8
2022-12-01T00:19:23.438Z,6.8
2022-12-01T00:20:23.541Z,6.8
2022-12-01T00:21:23.466Z,6.7
2022-12-01T00:22:23.455Z,6.7
2022-12-01T00:23:23.438Z,6.8
2022-12-01T00:24:23.450Z,6.8
2022-12-01T00:25:23.437Z,6.7
2022-12-01T00:26:23.445Z,6.6
2022-12-01T00:27:23.449Z,6.6
2022-12-01T00:28:23.432Z,6.6
2022-12-01T00:29:23.436Z,6.7
2022-12-01T00:30:23.455Z,6.8
2022-12-01T00:31:23.573Z,6.8
2022-12-01T00:32:23.467Z,6.8
2022-12-01T00:33:23.445Z,6.8
2022-12-01T00:34:23.449Z,6.8
2022-12-01T00:35:23.454Z,6.8
2022-12-01T00:36:23.452Z,6.8
2022-12-01T00:37:23.449Z,6.8
2022-12-01T00:38:23.488Z,6.9
2022-12-01T00:39:23.448Z,6.8
2022-12-01T00:40:23.457Z,6.8
2022-12-01T00:41:23.456Z,6.8
2022-12-01T00:42:23.473Z,6.9
2022-12-01T00:43:23.474Z,6.9
2022-12-01T00:44:23.440Z,6.8
2022-12-01T00:45:23.472Z,6.8
2022-12-01T00:46:23.513Z,6.9
2022-12-01T00:47:23.449Z,6.9
2022-12-01T00:48:23.443Z,6.9
2022-12-01T00:49:23.447Z,6.8
2022-12-01T00:50:23.439Z,6.8
2022-12-01T00:52:23.457Z,6.8
2022-12-01T00:53:23.457Z,6.8
2022-12-01T00:54:23.448Z,6.8
2022-12-01T00:55:23.481Z,6.8
2022-12-01T00:56:23.450Z,6.8
2022-12-01T00:57:23.463Z,6.8
2022-12-01T00:58:23.471Z,6.8
2022-12-01T00:59:23.449Z,6.9
2022-12-01T01:00:23.470Z,6.8
2022-12-01T01:01:23.602Z,6.9
2022-12-01T01:02:23.497Z,6.9
2022-12-01T01:03:23.473Z,6.9
2022-12-01T01:04:23.458Z,6.8
2022-12-01T01:05:23.478Z,6.9
2022-12-01T01:06:23.454Z,6.9
2022-12-01T01:07:23.472Z,6.9
2022-12-01T01:08:23.451Z,6.9
2022-12-01T01:09:23.469Z,6.9
2022-12-01T01:10:23.456Z,6.8
2022-12-01T01:11:23.455Z,6.8
2022-12-01T01:12:23.501Z,6.8
2022-12-01T01:13:23.459Z,6.8
2022-12-01T01:14:23.474Z,6.9
2022-12-01T01:15:23.456Z,6.8
2022-12-01T01:16:23.526Z,6.8
2022-12-01T01:17:23.450Z,6.8
2022-12-01T01:18:23.451Z,6.8
2022-12-01T01:19:23.454Z,6.8
2022-12-01T01:20:23.470Z,6.7
2022-12-01T01:21:23.458Z,6.7
2022-12-01T01:22:23.470Z,6.8
2022-12-01T01:23:23.464Z,6.7
2022-12-01T01:24:23.481Z,6.6
2022-12-01T01:25:23.466Z,6.7
2022-12-01T01:26:23.462Z,6.7
2022-12-01T01:27:23.478Z,6.7
2022-12-01T01:28:23.461Z,6.8
2022-12-01T01:29:23.452Z,6.8
2022-12-01T01:30:23.568Z,6.7
2022-12-01T01:31:23.493Z,6.8
2022-12-01T01:32:23.455Z,6.7
2022-12-01T01:33:23.454Z,6.7
2022-12-01T01:34:23.523Z,6.7
2022-12-01T01:35:23.469Z,6.8
2022-12-01T01:36:23.486Z,6.7
2022-12-01T01:37:23.505Z,6.7
2022-12-01T01:38:23.480Z,6.7
2022-12-01T01:39:23.481Z,6.7
2022-12-01T01:40:23.476Z,6.7
2022-12-01T01:41:23.470Z,6.7
2022-12-01T01:42:23.474Z,6.7
2022-12-01T01:43:23.467Z,6.7
2022-12-01T01:44:23.470Z,6.7
2022-12-01T01:45:23.465Z,6.7
2022-12-01T01:46:23.533Z,6.6
2022-12-01T01:47:23.464Z,6.7
2022-12-01T01:48:23.464Z,6.7
2022-12-01T01:49:23.476Z,6.7
2022-12-01T01:50:23.472Z,6.7
2022-12-01T01:51:23.478Z,6.7
2022-12-01T01:52:23.453Z,6.6
2022-12-01T01:53:23.471Z,6.6
2022-12-01T01:54:23.469Z,6.7
2022-12-01T01:55:23.473Z,6.7
2022-12-01T01:56:23.490Z,6.7
2022-12-01T01:57:23.479Z,6.7
2022-12-01T01:58:23.464Z,6.6
2022-12-01T01:59:23.469Z,6.7
2022-12-01T02:00:23.475Z,6.7
2022-12-01T02:01:23.593Z,6.8
2022-12-01T02:02:23.566Z,6.8
2022-12-01T02:03:23.470Z,6.8
2022-12-01T02:04:23.480Z,6.8
2022-12-01T02:05:23.488Z,6.8
2022-12-01T02:06:23.465Z,6.8
2022-12-01T02:07:23.514Z,6.8
2022-12-01T02:08:23.482Z,6.8
2022-12-01T02:09:23.476Z,6.7
2022-12-01T02:10:23.463Z,6.7
2022-12-01T02:11:23.470Z,6.8
2022-12-01T02:12:23.465Z,6.8
2022-12-01T02:13:23.478Z,6.8
2022-12-01T02:14:23.467Z,6.8
2022-12-01T02:15:23.472Z,6.8
2022-12-01T02:16:23.502Z,6.9
2022-12-01T02:17:23.469Z,6.9
2022-12-01T02:18:23.473Z,6.9
2022-12-01T02:19:23.468Z,6.9
2022-12-01T02:20:23.484Z,6.6
2022-12-01T02:21:23.486Z,6.6
2022-12-01T02:22:23.473Z,6.6
2022-12-01T02:23:23.464Z,6.6
2022-12-01T02:24:23.469Z,6.7
2022-12-01T02:25:23.466Z,6.7
2022-12-01T02:26:23.475Z,6.7
2022-12-01T02:27:23.470Z,6.7
2022-12-01T02:28:23.470Z,6.6
2022-12-01T02:29:23.492Z,6.7
2022-12-01T02:30:23.686Z,6.7
2022-12-01T02:31:23.525Z,6.7
2022-12-01T02:32:23.486Z,6.7
2022-12-01T02:33:23.472Z,6.6
2022-12-01T02:34:23.479Z,6.6
2022-12-01T02:35:23.543Z,6.6
2022-12-01T02:36:23.494Z,6.5
2022-12-01T02:37:23.498Z,6.6
2022-12-01T02:38:23.473Z,6.6
2022-12-01T02:39:23.473Z,6.6
2022-12-01T02:40:23.541Z,6.5
2022-12-01T02:41:23.480Z,6.6
2022-12-01T02:42:23.490Z,6.6
2022-12-01T02:43:23.488Z,6.7
2022-12-01T02:44:23.476Z,6.7
2022-12-01T02:45:23.479Z,6.6
2022-12-01T02:46:23.572Z,6.6
2022-12-01T02:47:23.484Z,6.6
2022-12-01T02:48:23.463Z,6.4
2022-12-01T02:49:23.469Z,6.5
2022-12-01T02:50:23.522Z,6.6
2022-12-01T02:51:23.495Z,6.6
2022-12-01T02:52:23.523Z,6.7
2022-12-01T02:53:23.465Z,6.7
2022-12-01T02:54:23.476Z,6.8
2022-12-01T02:55:23.502Z,6.8
2022-12-01T02:56:23.530Z,6.8
2022-12-01T02:57:23.477Z,6.6
2022-12-01T02:58:23.472Z,6.6
2022-12-01T02:59:23.473Z,6.7
2022-12-01T03:00:23.484Z,6.5
2022-12-01T03:01:23.523Z,6.6
2022-12-01T03:02:23.497Z,6.6
2022-12-01T03:03:23.474Z,6.6
2022-12-01T03:04:23.480Z,6.6
2022-12-01T03:05:23.479Z,6.7
2022-12-01T03:06:23.475Z,6.6
2022-12-01T03:07:23.557Z,6.7
2022-12-01T03:08:23.473Z,6.6
2022-12-01T03:09:23.503Z,6.6
2022-12-01T03:10:23.498Z,6.6
2022-12-01T03:11:23.484Z,6.6
2022-12-01T03:12:23.483Z,6.6
2022-12-01T03:13:23.496Z,6.5
2022-12-01T03:14:23.503Z,6.5
2022-12-01T03:16:23.544Z,6.6
2022-12-01T03:17:23.488Z,6.6
2022-12-01T03:18:23.488Z,6.6
2022-12-01T03:19:23.497Z,6.5
2022-12-01T03:20:23.469Z,6.6
2022-12-01T03:21:23.468Z,6.5
2022-12-01T03:22:23.476Z,6.5
2022-12-01T03:23:23.484Z,6.6
2022-12-01T03:24:23.481Z,6.5
2022-12-01T03:25:23.480Z,6.5
2022-12-01T03:26:23.500Z,6.6
2022-12-01T03:27:23.494Z,6.5
2022-12-01T03:28:23.481Z,6.5
2022-12-01T03:29:23.479Z,6.5
2022-12-01T03:30:23.505Z,6.5
2022-12-01T03:31:23.594Z,6.5
2022-12-01T03:32:23.482Z,6.6
2022-12-01T03:33:23.479Z,6.5
2022-12-01T03:34:23.481Z,6.4
2022-12-01T03:35:23.514Z,6.5
2022-12-01T03:36:23.483Z,6.4
2022-12-01T03:37:23.474Z,6.4
2022-12-01T03:38:23.510Z,6.3
2022-12-01T03:39:23.485Z,6.3
2022-12-01T03:40:23.477Z,6.4
2022-12-01T03:41:23.543Z,6.4
2022-12-01T03:42:23.486Z,6.4
2022-12-01T03:43:23.487Z,6.5
2022-12-01T03:44:23.480Z,6.5
2022-12-01T03:45:23.475Z,6.5
2022-12-01T03:46:23.609Z,6.6
2022-12-01T03:47:23.486Z,6.6
2022-12-01T03:48:23.487Z,6.6
2022-12-01T03:49:23.475Z,6.6
2022-12-01T03:50:23.488Z,6.6
2022-12-01T03:51:23.484Z,6.6
2022-12-01T03:52:23.481Z,6.6
2022-12-01T03:53:23.490Z,6.6
2022-12-01T03:54:23.484Z,6.6
2022-12-01T03:55:23.479Z,6.6
2022-12-01T03:56:23.484Z,6.6
2022-12-01T03:57:23.485Z,6.7
2022-12-01T03:58:23.518Z,6.7
2022-12-01T03:59:23.537Z,6.6
2022-12-01T04:00:23.487Z,6.6
2022-12-01T04:01:23.524Z,6.6
2022-12-01T04:02:23.545Z,6.6
2022-12-01T04:03:23.489Z,6.6
2022-12-01T04:04:23.495Z,6.6
2022-12-01T04:06:23.485Z,6.6
2022-12-01T04:07:23.590Z,6.6
2022-12-01T04:08:23.509Z,6.7
2022-12-01T04:09:23.532Z,6.7
2022-12-01T04:11:26.096Z,6.7
2022-12-01T04:12:23.492Z,6.7
2022-12-01T04:13:23.498Z,6.7
2022-12-01T04:14:23.497Z,6.7
2022-12-01T04:15:23.521Z,6.7
2022-12-01T04:16:23.554Z,6.7
2022-12-01T04:17:23.497Z,6.7
2022-12-01T04:18:23.492Z,6.7
2022-12-01T04:19:23.491Z,6.7
2022-12-01T04:20:23.501Z,6.6
2022-12-01T04:21:23.492Z,6.6
2022-12-01T04:22:23.490Z,6.6
2022-12-01T04:23:23.494Z,6.6
2022-12-01T04:24:23.492Z,6.5
2022-12-01T04:25:23.495Z,6.5
2022-12-01T04:26:23.497Z,6.6
2022-12-01T04:27:23.495Z,6.6
2022-12-01T04:28:23.496Z,6.6
2022-12-01T04:29:23.488Z,6.6
2022-12-01T04:30:23.501Z,6.6
2022-12-01T04:31:23.580Z,6.6
2022-12-01T04:32:23.527Z,6.5
2022-12-01T04:33:23.504Z,6.5
2022-12-01T04:34:23.490Z,6.5
2022-12-01T04:35:23.487Z,6.5
2022-12-01T04:36:23.496Z,6.6
2022-12-01T04:37:23.495Z,6.5
2022-12-01T04:38:27.483Z,6.6
2022-12-01T04:39:23.491Z,6.6
2022-12-01T04:40:23.527Z,6.6
2022-12-01T04:41:23.491Z,6.5
2022-12-01T04:42:23.496Z,6.6
2022-12-01T04:43:23.500Z,6.6
2022-12-01T04:44:23.511Z,6.6
2022-12-01T04:45:23.490Z,6.7
2022-12-01T04:46:23.523Z,6.6
2022-12-01T04:47:23.493Z,6.6
2022-12-01T04:48:23.497Z,6.7
2022-12-01T04:49:23.502Z,6.7
2022-12-01T04:50:23.492Z,6.6
2022-12-01T04:51:23.518Z,6.7
2022-12-01T04:52:23.504Z,6.6
2022-12-01T04:53:23.492Z,6.5
2022-12-01T04:54:23.495Z,6.5
2022-12-01T04:55:23.510Z,6.5
2022-12-01T04:56:23.504Z,6.5
2022-12-01T04:59:23.496Z,6.7
2022-12-01T05:00:23.509Z,6.7
2022-12-01T05:01:23.581Z,6.8
2022-12-01T05:02:23.545Z,6.7
2022-12-01T05:03:23.498Z,6.8
2022-12-01T05:04:23.497Z,6.7
2022-12-01T05:05:23.509Z,6.7
2022-12-01T05:06:23.537Z,6.8
2022-12-01T05:07:23.534Z,6.8
2022-12-01T05:08:23.494Z,6.8
2022-12-01T05:10:23.528Z,6.8
2022-12-01T05:11:23.584Z,6.9
2022-12-01T05:12:23.511Z,6.8
2022-12-01T05:13:23.497Z,6.8
2022-12-01T05:14:23.509Z,6.8
2022-12-01T05:15:23.504Z,6.9
2022-12-01T05:16:23.585Z,6.8
2022-12-01T05:17:23.497Z,6.8
2022-12-01T05:19:23.512Z,6.8
2022-12-01T05:20:23.500Z,6.8
2022-12-01T05:21:23.511Z,6.7
2022-12-01T05:22:42.782Z,6.7
2022-12-01T05:24:23.546Z,6.6
2022-12-01T05:25:23.524Z,6.7
2022-12-01T05:26:23.504Z,6.7
2022-12-01T05:28:23.500Z,6.7
2022-12-01T05:29:23.510Z,6.7
2022-12-01T05:30:28.338Z,6.8
2022-12-01T05:32:23.514Z,6.8
2022-12-01T05:33:23.508Z,6.8
2022-12-01T05:34:23.507Z,6.8
2022-12-01T05:35:23.502Z,6.9
2022-12-01T05:36:23.517Z,6.9
2022-12-01T05:37:23.509Z,6.9
2022-12-01T05:38:23.519Z,6.8
2022-12-01T05:39:23.504Z,6.7
2022-12-01T05:40:23.529Z,6.7
2022-12-01T05:41:23.509Z,6.8
2022-12-01T05:42:23.545Z,6.8
2022-12-01T05:43:28.620Z,6.8
2022-12-01T05:44:23.510Z,6.8
2022-12-01T05:45:23.504Z,6.8
2022-12-01T05:46:23.608Z,6.7
2022-12-01T05:47:23.505Z,6.6
2022-12-01T05:48:23.522Z,6.6
2022-12-01T05:49:23.508Z,6.6
2022-12-01T05:50:23.512Z,6.5
2022-12-01T05:51:23.519Z,6.5
2022-12-01T05:52:23.510Z,6.5
2022-12-01T05:53:23.515Z,6.5
2022-12-01T05:54:23.512Z,6.5
2022-12-01T05:55:23.686Z,6.5
2022-12-01T05:56:23.515Z,6.6
2022-12-01T05:57:23.537Z,6.6
2022-12-01T05:58:23.505Z,6.6
2022-12-01T05:59:23.524Z,6.6
2022-12-01T06:00:23.522Z,6.6
2022-12-01T06:01:23.521Z,6.6
2022-12-01T06:02:23.614Z,6.6
2022-12-01T06:03:23.527Z,6.6
2022-12-01T06:04:23.583Z,6.6
2022-12-01T06:05:23.535Z,6.7
2022-12-01T06:06:23.513Z,6.7
2022-12-01T06:07:23.617Z,6.7
2022-12-01T06:08:23.544Z,6.6
2022-12-01T06:09:23.511Z,6.7
2022-12-01T06:10:23.521Z,6.7
2022-12-01T06:11:23.545Z,6.6
2022-12-01T06:12:23.525Z,6.6
2022-12-01T06:13:23.568Z,6.6
2022-12-01T06:14:23.554Z,6.6
2022-12-01T06:15:23.525Z,6.6
2022-12-01T06:16:23.599Z,6.7
2022-12-01T06:17:23.540Z,6.6
2022-12-01T06:18:23.521Z,6.7
2022-12-01T06:19:23.527Z,6.7
2022-12-01T06:20:23.523Z,6.7
2022-12-01T06:21:23.516Z,7.8
2022-12-01T06:22:23.522Z,9.3
2022-12-01T06:23:28.920Z,10.6
2022-12-01T06:24:23.519Z,11.6
2022-12-01T06:25:23.540Z,11.9
2022-12-01T06:26:23.546Z,11.6
2022-12-01T06:27:23.520Z,11.6
2022-12-01T06:28:23.521Z,11
2022-12-01T06:29:23.549Z,10.5
2022-12-01T06:30:23.562Z,10
2022-12-01T06:31:23.546Z,9.3
2022-12-01T06:32:23.513Z,9
2022-12-01T06:33:23.533Z,8.7
2022-12-01T06:34:23.545Z,8.4
2022-12-01T06:35:23.530Z,8.2
2022-12-01T06:36:23.536Z,8.1
2022-12-01T06:37:23.547Z,7.8
2022-12-01T06:38:23.550Z,7.6
2022-12-01T06:39:23.544Z,7.6
2022-12-01T06:40:23.548Z,7.5
2022-12-01T06:41:23.552Z,7.4
2022-12-01T06:42:23.536Z,7.2
2022-12-01T06:43:23.526Z,7.2
2022-12-01T06:44:23.584Z,7.1
2022-12-01T06:45:23.551Z,7
2022-12-01T06:46:23.594Z,6.9
2022-12-01T06:47:23.523Z,6.8
2022-12-01T06:48:23.543Z,6.8
2022-12-01T06:49:23.518Z,6.8
2022-12-01T06:50:23.548Z,6.9
2022-12-01T06:51:23.545Z,6.8
2022-12-01T06:52:23.534Z,6.9
2022-12-01T06:53:23.533Z,6.8
2022-12-01T06:54:23.547Z,6.8
2022-12-01T06:55:23.547Z,6.7
2022-12-01T06:56:23.544Z,6.8
2022-12-01T06:57:23.549Z,6.9
2022-12-01T06:58:23.551Z,6.8
2022-12-01T06:59:23.534Z,6.8
2022-12-01T07:00:23.533Z,6.8
2022-12-01T07:01:23.555Z,6.9
2022-12-01T07:02:23.563Z,6.9
2022-12-01T07:03:23.598Z,6.9
2022-12-01T07:04:23.529Z,6.9
2022-12-01T07:05:23.531Z,6.8
2022-12-01T07:06:23.540Z,6.8
2022-12-01T07:07:23.587Z,6.8
2022-12-01T07:08:23.521Z,6.7
2022-12-01T07:09:23.535Z,6.6
2022-12-01T07:10:23.537Z,6.8
2022-12-01T07:11:23.553Z,6.7
2022-12-01T07:12:23.548Z,6.7
2022-12-01T07:13:24.367Z,6.7
2022-12-01T07:14:23.529Z,6.6
2022-12-01T07:15:23.594Z,6.7
2022-12-01T07:16:23.617Z,6.7
2022-12-01T07:17:23.531Z,6.7
2022-12-01T07:18:23.528Z,6.7
2022-12-01T07:19:23.536Z,6.7
2022-12-01T07:20:23.558Z,6.7
2022-12-01T07:21:23.567Z,6.6
2022-12-01T07:22:26.912Z,6.6
2022-12-01T07:23:23.550Z,6.6
2022-12-01T07:24:23.545Z,6.6
2022-12-01T07:25:23.543Z,6.7
2022-12-01T07:26:23.548Z,6.6
2022-12-01T07:27:23.544Z,6.6
2022-12-01T07:28:23.555Z,6.7
2022-12-01T07:29:23.553Z,6.7
2022-12-01T07:30:28.276Z,6.7
2022-12-01T07:31:23.646Z,6.7
2022-12-01T07:32:23.539Z,6.7
2022-12-01T07:34:23.549Z,6.8
2022-12-01T07:35:23.541Z,6.8
2022-12-01T07:36:23.534Z,6.9
2022-12-01T07:37:23.590Z,6.9
2022-12-01T07:38:23.557Z,6.8
2022-12-01T07:39:23.560Z,6.8
2022-12-01T07:40:23.563Z,6.8
2022-12-01T07:41:23.571Z,6.8
2022-12-01T07:42:23.560Z,6.8
2022-12-01T07:43:23.569Z,6.7
2022-12-01T07:44:23.558Z,6.8
2022-12-01T07:45:23.545Z,6.8
2022-12-01T07:46:24.422Z,6.8
2022-12-01T07:47:23.545Z,6.8
2022-12-01T07:48:23.562Z,6.8
2022-12-01T07:49:23.565Z,6.7
2022-12-01T07:50:23.536Z,6.7
2022-12-01T07:51:23.536Z,6.6
2022-12-01T07:52:23.559Z,6.6
2022-12-01T07:53:23.583Z,6.6
2022-12-01T07:54:23.568Z,6.6
2022-12-01T07:55:23.540Z,7.6
2022-12-01T07:56:23.552Z,8.5
2022-12-01T07:57:23.546Z,9.2
2022-12-01T07:58:23.534Z,9.9
2022-12-01T07:59:23.549Z,10.6
2022-12-01T08:00:23.547Z,11.2
2022-12-01T08:01:23.604Z,11.8
2022-12-01T08:02:23.642Z,12.2
2022-12-01T08:03:23.582Z,12.3
2022-12-01T08:04:23.560Z,12.5
2022-12-01T08:05:23.539Z,12.8
2022-12-01T08:06:23.565Z,11.7
2022-12-01T08:07:27.229Z,11.3
2022-12-01T08:08:23.555Z,10.9
2022-12-01T08:09:23.561Z,10.4
2022-12-01T08:10:23.563Z,9.9
2022-12-01T08:11:23.551Z,9.4
2022-12-01T08:12:23.555Z,9
2022-12-01T08:13:23.546Z,8.6
2022-12-01T08:14:23.557Z,9.6
2022-12-01T08:15:23.624Z,9.5
2022-12-01T08:16:23.562Z,9.1
2022-12-01T08:17:23.577Z,8.9
2022-12-01T08:18:23.547Z,8.6
2022-12-01T08:19:23.564Z,8.4
2022-12-01T08:20:24.217Z,8.2
2022-12-01T08:21:23.573Z,8.1
2022-12-01T08:23:23.568Z,7.9
2022-12-01T08:24:23.565Z,7.8
2022-12-01T08:25:23.574Z,7.7
2022-12-01T08:26:23.579Z,7.5
2022-12-01T08:27:23.569Z,7.5
2022-12-01T08:28:23.571Z,7.4
2022-12-01T08:29:23.568Z,7.5
2022-12-01T08:30:23.566Z,7.4
2022-12-01T08:31:23.715Z,7.4
2022-12-01T08:32:23.578Z,7.2
2022-12-01T08:33:23.543Z,7.3
2022-12-01T08:34:23.554Z,7.1
2022-12-01T08:35:23.566Z,7.2
2022-12-01T08:36:23.565Z,7.1
2022-12-01T08:37:23.550Z,7.2
2022-12-01T08:38:23.559Z,7.2
2022-12-01T08:39:23.553Z,7.2
2022-12-01T08:40:23.565Z,7.2
2022-12-01T08:41:23.578Z,7.1
2022-12-01T08:42:23.570Z,7.1
2022-12-01T08:43:57.291Z,7.1
2022-12-01T08:44:23.630Z,7.1
2022-12-01T08:45:23.568Z,7.1
2022-12-01T08:46:23.579Z,7.2
2022-12-01T08:47:23.567Z,7.2
2022-12-01T08:48:23.602Z,7.2
2022-12-01T08:49:23.587Z,7.2
2022-12-01T08:50:23.611Z,7.2
2022-12-01T08:53:23.553Z,7.1
2022-12-01T08:54:23.560Z,7
2022-12-01T08:55:23.582Z,7.1
2022-12-01T08:56:23.577Z,7
2022-12-01T08:58:23.561Z,6.9
2022-12-01T08:59:23.554Z,6.9
2022-12-01T09:00:23.556Z,6.8
2022-12-01T09:01:23.640Z,6.9
2022-12-01T09:02:23.696Z,6.9
2022-12-01T09:03:23.640Z,6.8
2022-12-01T09:04:23.569Z,6.8
2022-12-01T09:05:23.574Z,6.9
2022-12-01T09:06:23.560Z,6.8
2022-12-01T09:07:26.404Z,6.8
2022-12-01T09:08:23.561Z,6.8
2022-12-01T09:09:23.560Z,6.8
2022-12-01T09:10:23.584Z,6.8
2022-12-01T09:11:23.580Z,6.8
2022-12-01T09:12:23.585Z,6.9
2022-12-01T09:13:23.579Z,6.9
2022-12-01T09:14:23.603Z,6.9
2022-12-01T09:15:23.558Z,6.9
2022-12-01T09:16:23.613Z,7
2022-12-01T09:17:23.565Z,6.9
2022-12-01T09:18:23.568Z,7
2022-12-01T09:19:24.921Z,7
2022-12-01T09:20:23.568Z,6.9
2022-12-01T09:21:23.586Z,6.9
2022-12-01T09:22:23.581Z,6.9
2022-12-01T09:23:23.581Z,6.8
2022-12-01T09:24:23.563Z,7.8
2022-12-01T09:25:23.565Z,8.6
2022-12-01T09:26:23.695Z,8.8
2022-12-01T09:27:23.557Z,8.9
2022-12-01T09:28:23.573Z,9.7
2022-12-01T09:29:23.557Z,10.4
2022-12-01T09:30:23.555Z,10.7
2022-12-01T09:31:23.819Z,11
2022-12-01T09:32:23.741Z,10.6
2022-12-01T09:33:23.572Z,10.4
2022-12-01T09:34:23.560Z,9.5
2022-12-01T09:35:23.827Z,9.3
2022-12-01T09:36:23.560Z,9.1
2022-12-01T09:37:23.581Z,8.9
2022-12-01T09:38:23.588Z,8.5
2022-12-01T09:39:23.652Z,8.3
2022-12-01T09:40:23.562Z,8.2
2022-12-01T09:41:23.566Z,8.1
2022-12-01T09:42:23.557Z,8
2022-12-01T09:43:23.572Z,7.6
2022-12-01T09:44:23.559Z,7.5
2022-12-01T09:45:23.570Z,7.6
2022-12-01T09:46:23.639Z,7.6
2022-12-01T09:47:23.598Z,7.3
2022-12-01T09:48:23.586Z,7.2
2022-12-01T09:49:23.587Z,7.2
2022-12-01T09:50:23.610Z,7.1
2022-12-01T09:51:23.579Z,7
2022-12-01T09:52:23.584Z,6.7
2022-12-01T09:54:23.594Z,6.8
2022-12-01T09:55:23.598Z,6.9
2022-12-01T09:56:23.582Z,6.8
2022-12-01T09:57:23.597Z,6.8
2022-12-01T09:58:23.586Z,6.7
2022-12-01T09:59:23.597Z,6.7
2022-12-01T10:00:23.693Z,6.8
2022-12-01T10:01:27.265Z,6.8
2022-12-01T10:02:23.624Z,6.7
2022-12-01T10:03:23.589Z,6.7
2022-12-01T10:04:23.579Z,6.7
2022-12-01T10:05:23.657Z,6.7
2022-12-01T10:06:28.481Z,6.7
2022-12-01T10:07:23.674Z,6.7
2022-12-01T10:08:26.963Z,6.6
2022-12-01T10:09:23.604Z,6.5
2022-12-01T10:10:23.630Z,7.8
2022-12-01T10:11:23.590Z,8.6
2022-12-01T10:12:23.585Z,8.3
2022-12-01T10:13:23.596Z,8.1
2022-12-01T10:14:23.590Z,8
2022-12-01T10:15:23.592Z,7.6
2022-12-01T10:16:23.665Z,7.3
2022-12-01T10:17:23.585Z,7.4
2022-12-01T10:18:23.594Z,7.3
2022-12-01T10:19:23.578Z,7.2
2022-12-01T10:20:23.675Z,7.1
2022-12-01T10:22:23.596Z,7
2022-12-01T10:23:23.582Z,6.9
2022-12-01T10:24:23.601Z,6.8
2022-12-01T10:25:23.598Z,6.8
2022-12-01T10:26:23.624Z,6.8
2022-12-01T10:27:23.598Z,6.8
2022-12-01T10:28:23.591Z,6.7
2022-12-01T10:29:23.598Z,6.7
2022-12-01T10:30:23.696Z,6.7
2022-12-01T10:31:23.648Z,6.7
2022-12-01T10:32:23.587Z,6.7
2022-12-01T10:33:23.603Z,6.6
2022-12-01T10:34:23.612Z,6.6
2022-12-01T10:35:23.593Z,6.7
2022-12-01T10:36:23.597Z,6.7
2022-12-01T10:37:23.651Z,6.8
2022-12-01T10:38:23.599Z,6.8
2022-12-01T10:39:23.600Z,6.7
2022-12-01T10:40:23.585Z,6.8
2022-12-01T10:41:23.590Z,6.7
2022-12-01T10:42:23.593Z,6.6
2022-12-01T10:43:23.598Z,6.6
2022-12-01T10:44:23.589Z,6.6
2022-12-01T10:45:23.586Z,6.7
2022-12-01T10:46:23.677Z,6.7
2022-12-01T10:47:23.599Z,6.5
2022-12-01T10:48:23.596Z,6.6
2022-12-01T10:49:23.604Z,6.6
2022-12-01T10:51:23.600Z,6.7
2022-12-01T10:52:23.628Z,6.5
2022-12-01T10:53:23.589Z,6.5
2022-12-01T10:54:23.594Z,6.6
2022-12-01T10:56:23.600Z,6.6
2022-12-01T10:57:23.598Z,6.4
2022-12-01T10:58:23.588Z,6.6
2022-12-01T10:59:23.596Z,6.3
2022-12-01T11:00:57.585Z,6.5
2022-12-01T11:01:23.824Z,6.6
2022-12-01T11:02:23.837Z,6.6
2022-12-01T11:03:23.882Z,6.6
2022-12-01T11:04:23.601Z,6.5
2022-12-01T11:05:23.607Z,6.5
2022-12-01T11:06:23.582Z,6.5
2022-12-01T11:07:23.644Z,6.6
2022-12-01T11:08:23.600Z,6.5
2022-12-01T11:09:26.160Z,7.6
2022-12-01T11:10:23.588Z,8.9
2022-12-01T11:11:23.612Z,10.1
2022-12-01T11:12:23.601Z,10.3
2022-12-01T11:13:23.600Z,10.2
2022-12-01T11:14:24.116Z,10
2022-12-01T11:15:23.603Z,9.5
2022-12-01T11:16:23.624Z,9.1
2022-12-01T11:17:23.606Z,8.7
2022-12-01T11:18:23.612Z,8.4
2022-12-01T11:19:27.509Z,8
2022-12-01T11:20:23.670Z,7.8
2022-12-01T11:21:23.605Z,8.1
2022-12-01T11:22:23.621Z,8.6
2022-12-01T11:23:23.659Z,8.3
2022-12-01T11:24:23.601Z,8.3
2022-12-01T11:25:23.603Z,8.1
2022-12-01T11:26:23.605Z,8
2022-12-01T11:27:23.592Z,7.9
2022-12-01T11:28:23.600Z,7.8
2022-12-01T11:29:23.606Z,7.6
2022-12-01T11:30:23.604Z,7.6
2022-12-01T11:31:24.719Z,7.5
2022-12-01T11:32:23.584Z,7.5
2022-12-01T11:33:23.589Z,7.5
2022-12-01T11:34:23.604Z,7.7
2022-12-01T11:35:23.611Z,7.7
2022-12-01T11:37:23.594Z,7.6
2022-12-01T11:38:30.971Z,7.6
2022-12-01T11:39:23.596Z,7.6
2022-12-01T11:40:23.603Z,7.4
2022-12-01T11:41:23.601Z,7.4
2022-12-01T11:42:23.595Z,7.2
2022-12-01T11:43:23.599Z,7.2
2022-12-01T11:44:51.448Z,7.2
2022-12-01T11:45:23.594Z,7.1
2022-12-01T11:46:23.656Z,7.1
2022-12-01T11:47:24.806Z,7.2
2022-12-01T11:48:23.608Z,7.1
2022-12-01T11:49:23.600Z,7.1
2022-12-01T11:50:23.602Z,7.1
2022-12-01T11:51:23.639Z,7.2
2022-12-01T11:52:23.604Z,7.2
2022-12-01T11:53:23.613Z,7.3
2022-12-01T11:54:23.642Z,7.3
2022-12-01T11:55:23.603Z,7.3
2022-12-01T11:56:23.838Z,7.2
2022-12-01T11:57:34.328Z,7.3
2022-12-01T11:58:23.679Z,7.3
2022-12-01T11:59:23.610Z,7.3
2022-12-01T12:01:23.598Z,7.3
2022-12-01T12:02:23.684Z,7.4
2022-12-01T12:03:23.669Z,7.4
2022-12-01T12:04:23.619Z,7.4
2022-12-01T12:05:23.623Z,7.5
2022-12-01T12:06:40.271Z,7.4
2022-12-01T12:07:23.628Z,7.3
2022-12-01T12:08:23.608Z,7.3
2022-12-01T12:09:23.656Z,7.4
2022-12-01T12:10:23.724Z,7.3
2022-12-01T12:11:23.618Z,7.3
2022-12-01T12:12:23.618Z,7.2
2022-12-01T12:13:23.611Z,7.2
2022-12-01T12:15:23.619Z,7
2022-12-01T12:16:26.297Z,7.1
2022-12-01T12:17:23.655Z,7.1
2022-12-01T12:18:23.605Z,7.1
2022-12-01T12:19:33.673Z,7.1
2022-12-01T12:20:23.615Z,7.1
2022-12-01T12:21:23.618Z,7.1
2022-12-01T12:22:23.619Z,7.1
2022-12-01T12:23:23.615Z,7
2022-12-01T12:24:23.622Z,7.1
2022-12-01T12:25:23.652Z,7.1
2022-12-01T12:26:23.614Z,7.1
2022-12-01T12:27:23.618Z,7.1
2022-12-01T12:28:23.617Z,7
2022-12-01T12:29:23.610Z,7
2022-12-01T12:30:23.633Z,7
2022-12-01T12:31:23.650Z,7
2022-12-01T12:32:23.624Z,7.1
2022-12-01T12:33:23.611Z,7
2022-12-01T12:34:23.637Z,7.1
2022-12-01T12:35:23.619Z,7.1
2022-12-01T12:36:23.616Z,7.1
2022-12-01T12:37:23.617Z,7.3
2022-12-01T12:38:23.605Z,7.3
2022-12-01T12:39:23.608Z,7.3
2022-12-01T12:40:23.623Z,7.4
2022-12-01T12:41:23.619Z,7.4
2022-12-01T12:42:23.604Z,7.4
2022-12-01T12:43:23.646Z,7.4
2022-12-01T12:44:23.637Z,7.4
2022-12-01T12:45:23.621Z,7.4
2022-12-01T12:46:23.706Z,7.4
2022-12-01T12:47:23.629Z,7.5
2022-12-01T12:48:23.629Z,7.5
2022-12-01T12:49:23.611Z,7.5
2022-12-01T12:50:23.606Z,7.4
2022-12-01T12:51:23.630Z,7.4
2022-12-01T12:52:23.622Z,7.3
2022-12-01T12:53:23.626Z,7.3
2022-12-01T12:54:23.811Z,7.3
2022-12-01T12:55:23.636Z,7.3
2022-12-01T12:56:23.652Z,7.2
2022-12-01T12:57:23.629Z,7.2
2022-12-01T12:58:23.624Z,7.3
2022-12-01T12:59:23.629Z,7.2
2022-12-01T13:00:23.632Z,7.2
2022-12-01T13:01:23.685Z,7.2
2022-12-01T13:02:23.671Z,7.3
2022-12-01T13:03:25.139Z,7.2
2022-12-01T13:04:23.627Z,7.2
2022-12-01T13:05:23.620Z,7.1
2022-12-01T13:06:23.609Z,7.3
2022-12-01T13:07:23.712Z,7.3
2022-12-01T13:08:23.634Z,7.3
2022-12-01T13:09:23.606Z,7.4
2022-12-01T13:10:23.619Z,7.3
2022-12-01T13:11:24.387Z,7.3
2022-12-01T13:12:23.614Z,7.2
2022-12-01T13:13:23.626Z,7.3
2022-12-01T13:15:23.634Z,7.4
2022-12-01T13:16:23.667Z,7.4
2022-12-01T13:17:23.665Z,7.4
2022-12-01T13:18:23.619Z,7.4
2022-12-01T13:19:23.622Z,7.2
2022-12-01T13:20:23.611Z,7.3
2022-12-01T13:21:23.688Z,7.2
2022-12-01T13:22:23.639Z,7.2
2022-12-01T13:23:23.632Z,7.2
2022-12-01T13:24:23.732Z,7.2
2022-12-01T13:25:23.638Z,7.1
2022-12-01T13:26:23.641Z,7.2
2022-12-01T13:27:23.680Z,7.3
2022-12-01T13:28:23.635Z,7.3
2022-12-01T13:29:23.632Z,7.4
2022-12-01T13:30:23.646Z,7.3
2022-12-01T13:31:23.699Z,7.3
2022-12-01T13:32:23.623Z,7.2
2022-12-01T13:33:23.656Z,7.2
2022-12-01T13:34:23.635Z,7.2
2022-12-01T13:35:23.627Z,7.2
2022-12-01T13:36:45.801Z,7.2
2022-12-01T13:37:23.624Z,7.3
2022-12-01T13:38:23.629Z,7.3
2022-12-01T13:39:23.665Z,7.3
2022-12-01T13:40:23.651Z,7.3
2022-12-01T13:41:23.653Z,7.2
2022-12-01T13:42:23.635Z,7.2
2022-12-01T13:44:23.645Z,7.1
2022-12-01T13:45:23.648Z,7.1
2022-12-01T13:46:23.715Z,7.2
2022-12-01T13:47:23.661Z,7.1
2022-12-01T13:48:23.646Z,7.2
2022-12-01T13:49:23.739Z,7.2
2022-12-01T13:50:23.642Z,7.2
2022-12-01T13:51:23.628Z,7.2
2022-12-01T13:52:23.626Z,7.3
2022-12-01T13:53:23.640Z,7.6
2022-12-01T13:54:23.647Z,7.7
2022-12-01T13:55:23.640Z,7.7
2022-12-01T13:56:23.634Z,7.6
2022-12-01T13:57:23.631Z,7.6
2022-12-01T13:58:23.675Z,7.5
2022-12-01T14:00:23.745Z,9
2022-12-01T14:01:23.795Z,10.1
2022-12-01T14:02:23.747Z,10.7
2022-12-01T14:03:23.685Z,10.8
2022-12-01T14:04:23.647Z,10.6
2022-12-01T14:05:23.642Z,10.4
2022-12-01T14:06:23.667Z,10.1
2022-12-01T14:07:23.732Z,9.6
2022-12-01T14:08:23.924Z,9.5
2022-12-01T14:09:23.648Z,10.2
2022-12-01T14:10:23.646Z,10.9
2022-12-01T14:11:23.664Z,11.5
2022-12-01T14:12:23.650Z,11.9